Time;durP1;ratioP1;P1;durP2;ratioP2;P2;SDS_P1;SDS_P2;PMS_P1;PMS_P2;Temp;Humidity;BMP_temperature;BMP_pressure;BME280_temperature;BME280_humidity;BME280_pressure;Samples;Min_cycle;Max_cycle;Signal;HPM_P1;HPM_P2
2021/12/21 00:00:20;;;;;;;20.08;9.95;;;-0.30;99.90;;;;;;4995084;28;20031;-48
2021/12/21 00:02:49;;;;;;;19.02;9.50;;;-0.40;99.90;;;;;;5030528;22;20103;-52
2021/12/21 00:05:20;;;;;;;18.63;10.27;;;-0.40;99.90;;;;;;5006427;28;20051;-53
2021/12/21 00:07:49;;;;;;;20.63;10.45;;;-0.50;99.90;;;;;;5032424;28;20410;-53
2021/12/21 00:10:16;;;;;;;18.20;8.57;;;-0.50;99.90;;;;;;5046270;28;20045;-51
2021/12/21 00:13:00;;;;;;;21.48;9.77;;;-0.50;99.90;;;;;;5035900;28;20044;-52
2021/12/21 00:15:42;;;;;;;22.80;9.48;;;-0.60;99.90;;;;;;5028357;28;20038;-53
2021/12/21 00:23:37;;;;;;;20.02;9.40;;;-0.70;99.90;;;;;;5030291;28;20124;-52
2021/12/21 00:26:16;;;;;;;21.15;10.27;;;-0.70;99.90;;;;;;5010683;28;20073;-52
2021/12/21 00:31:08;;;;;;;20.95;10.93;;;-0.70;99.90;;;;;;5033180;28;20045;-49
2021/12/21 00:33:34;;;;;;;23.23;11.25;;;-0.80;99.90;;;;;;5033356;28;20047;-53
2021/12/21 00:36:00;;;;;;;22.40;10.57;;;-0.80;99.90;;;;;;5033585;28;20405;-50
2021/12/21 00:38:26;;;;;;;17.95;10.43;;;-0.80;99.90;;;;;;5033434;28;20071;-53
2021/12/21 00:40:51;;;;;;;19.35;10.00;;;-0.90;99.90;;;;;;5033692;28;20037;-53
2021/12/21 00:43:17;;;;;;;20.85;10.77;;;-0.80;99.90;;;;;;5011862;28;20410;-50
2021/12/21 00:45:43;;;;;;;22.58;11.18;;;-0.90;99.90;;;;;;5027383;28;20069;-52
2021/12/21 00:48:08;;;;;;;20.38;10.75;;;-0.90;99.90;;;;;;4980099;28;20510;-51
2021/12/21 00:50:34;;;;;;;18.60;10.40;;;-0.90;99.90;;;;;;5033065;28;20041;-50
2021/12/21 00:53:00;;;;;;;20.40;10.88;;;-0.90;99.90;;;;;;4999196;28;20025;-50
2021/12/21 00:55:26;;;;;;;22.75;11.07;;;-0.90;99.90;;;;;;5015169;28;20048;-50
2021/12/21 00:57:52;;;;;;;21.80;10.20;;;-0.90;99.90;;;;;;5033663;28;20038;-53
2021/12/21 01:00:21;;;;;;;26.77;11.23;;;-0.90;99.90;;;;;;5015698;28;20060;-53
2021/12/21 01:02:48;;;;;;;22.98;10.15;;;-1.00;99.90;;;;;;5028459;28;20037;-51
2021/12/21 01:05:24;;;;;;;23.67;10.27;;;-1.00;99.90;;;;;;5015617;28;20508;-53
2021/12/21 01:07:54;;;;;;;21.27;11.10;;;-1.00;99.90;;;;;;5016870;28;20068;-53
2021/12/21 01:18:13;;;;;;;18.42;10.20;;;-0.90;99.90;;;;;;5030095;28;20045;-53
2021/12/21 01:20:45;;;;;;;18.55;11.13;;;-0.90;99.90;;;;;;5033058;28;20041;-53
2021/12/21 01:23:48;;;;;;;23.60;10.52;;;-0.90;99.90;;;;;;5033042;28;20044;-53
2021/12/21 01:26:21;;;;;;;22.23;10.52;;;-0.90;99.90;;;;;;5032253;28;20041;-53
2021/12/21 01:29:07;;;;;;;21.95;10.73;;;-0.90;99.90;;;;;;5029842;28;20120;-53
2021/12/21 01:31:45;;;;;;;21.63;10.80;;;-0.90;99.90;;;;;;4998133;28;20045;-53
2021/12/21 01:36:48;;;;;;;23.67;10.32;;;-1.00;99.90;;;;;;5032312;28;20042;-53
2021/12/21 01:41:54;;;;;;;19.48;9.88;;;-1.00;99.90;;;;;;5023285;28;20042;-53
2021/12/21 01:49:52;;;;;;;20.10;9.98;;;-1.10;99.90;;;;;;4987983;28;20421;-52
2021/12/21 01:52:20;;;;;;;20.40;10.18;;;-1.10;99.90;;;;;;5015067;28;20037;-52
2021/12/21 01:54:47;;;;;;;19.17;10.20;;;-1.20;99.90;;;;;;5015598;28;20060;-53
2021/12/21 01:57:14;;;;;;;21.15;9.57;;;-1.20;99.90;;;;;;5032187;28;20060;-53
2021/12/21 01:59:41;;;;;;;23.50;11.10;;;-1.20;99.90;;;;;;5030720;28;20084;-51
2021/12/21 02:02:08;;;;;;;27.33;11.35;;;-1.20;99.90;;;;;;5025001;28;20042;-53
2021/12/21 02:04:38;;;;;;;26.77;12.38;;;-1.20;99.90;;;;;;5030529;28;20110;-51
2021/12/21 02:07:05;;;;;;;27.33;11.90;;;-1.20;99.90;;;;;;5031691;28;20103;-52
2021/12/21 02:09:40;;;;;;;29.77;12.10;;;-1.20;99.90;;;;;;5013427;28;20742;-52
2021/12/21 02:12:09;;;;;;;23.23;11.13;;;-1.20;99.90;;;;;;5031462;28;20060;-53
2021/12/21 02:14:36;;;;;;;24.42;10.82;;;-1.20;99.90;;;;;;5031656;28;20033;-53
2021/12/21 02:20:13;;;;;;;26.65;12.65;;;-1.10;99.90;;;;;;5024775;28;20228;-53
2021/12/21 02:22:45;;;;;;;21.87;12.37;;;-1.10;99.90;;;;;;5031080;28;20037;-53
2021/12/21 02:27:59;;;;;;;29.98;15.07;;;-1.10;99.90;;;;;;5032123;28;20049;-51
2021/12/21 02:30:26;;;;;;;28.33;13.88;;;-1.10;99.90;;;;;;5013763;28;20049;-51
2021/12/21 02:32:53;;;;;;;29.38;13.27;;;-1.10;99.90;;;;;;5031324;28;20149;-53
2021/12/21 02:35:19;;;;;;;26.90;12.35;;;-1.20;99.90;;;;;;5030847;28;20400;-53
2021/12/21 02:37:46;;;;;;;27.35;11.60;;;-1.30;99.90;;;;;;5031609;28;20037;-53
2021/12/21 02:40:13;;;;;;;21.08;12.07;;;-1.30;99.90;;;;;;4995871;28;20080;-50
2021/12/21 02:42:39;;;;;;;25.10;12.10;;;-1.30;99.90;;;;;;5031283;28;20129;-53
2021/12/21 02:45:05;;;;;;;21.35;12.15;;;-1.30;99.90;;;;;;5025738;28;20564;-53
2021/12/21 02:47:32;;;;;;;24.38;10.95;;;-1.30;99.90;;;;;;5031732;28;20088;-53
2021/12/21 02:49:59;;;;;;;21.48;11.73;;;-1.40;99.90;;;;;;5015399;28;20042;-49
2021/12/21 02:52:25;;;;;;;23.38;11.88;;;-1.40;99.90;;;;;;5031164;28;20045;-51
2021/12/21 02:54:51;;;;;;;27.45;12.50;;;-1.40;99.90;;;;;;5013570;28;20501;-49
2021/12/21 02:57:16;;;;;;;21.60;11.88;;;-1.40;99.90;;;;;;5031657;28;20033;-49
2021/12/21 02:59:42;;;;;;;22.13;11.57;;;-1.50;99.90;;;;;;5031104;28;20033;-51
2021/12/21 03:02:07;;;;;;;21.90;12.20;;;-1.60;99.90;;;;;;5030963;28;20036;-49
2021/12/21 03:04:33;;;;;;;23.80;10.77;;;-1.60;99.90;;;;;;5030632;28;20524;-51
2021/12/21 03:09:39;;;;;;;22.63;11.03;;;-1.60;99.90;;;;;;5031417;28;20049;-51
2021/12/21 03:14:46;;;;;;;19.90;10.57;;;-1.50;99.90;;;;;;5024542;28;20033;-49
2021/12/21 03:17:12;;;;;;;19.48;10.73;;;-1.50;99.90;;;;;;5031425;28;20405;-51
2021/12/21 03:19:37;;;;;;;18.73;10.18;;;-1.40;99.90;;;;;;5031218;28;20052;-49
2021/12/21 03:22:04;;;;;;;24.08;10.77;;;-1.40;99.90;;;;;;5031029;28;20501;-50
2021/12/21 03:24:30;;;;;;;23.38;10.45;;;-1.40;99.90;;;;;;5031022;28;20357;-50
2021/12/21 03:26:56;;;;;;;21.67;10.25;;;-1.50;99.90;;;;;;5030887;28;20106;-48
2021/12/21 03:29:22;;;;;;;17.08;10.30;;;-1.50;99.90;;;;;;5031172;28;20041;-48
2021/12/21 03:31:47;;;;;;;21.80;11.13;;;-1.60;99.90;;;;;;5031234;28;20509;-48
2021/12/21 03:34:13;;;;;;;17.92;10.23;;;-1.60;99.90;;;;;;5030845;28;20037;-48
2021/12/21 03:36:40;;;;;;;19.02;10.60;;;-1.60;99.90;;;;;;5031047;28;20466;-50
2021/12/21 03:39:08;;;;;;;23.50;10.55;;;-1.70;99.90;;;;;;5031343;28;20052;-51
2021/12/21 03:41:45;;;;;;;19.75;9.73;;;-1.60;99.90;;;;;;5030988;28;20042;-50
2021/12/21 03:44:10;;;;;;;18.85;9.73;;;-1.60;99.90;;;;;;5026325;28;20092;-49
2021/12/21 03:46:44;;;;;;;20.30;10.15;;;-1.50;99.90;;;;;;5011666;28;20073;-50
2021/12/21 03:49:45;;;;;;;21.15;10.63;;;-1.60;99.90;;;;;;5026221;28;20045;-48
2021/12/21 03:51:56;;;;;;;15.65;9.77;;;-1.60;99.90;;;;;;5030070;28;20045;-48
2021/12/21 03:54:22;;;;;;;20.23;10.90;;;-1.70;99.90;;;;;;5030747;28;20184;-48
2021/12/21 03:56:50;;;;;;;22.65;11.52;;;-1.80;99.90;;;;;;4996385;28;20437;-51
2021/12/21 03:59:17;;;;;;;18.75;10.30;;;-1.80;99.90;;;;;;5030878;28;20055;-51
2021/12/21 04:01:42;;;;;;;20.85;10.40;;;-1.80;99.90;;;;;;5030825;28;20084;-48
2021/12/21 04:04:08;;;;;;;22.90;9.88;;;-1.80;99.90;;;;;;5030881;28;20519;-48
2021/12/21 04:06:35;;;;;;;20.60;10.50;;;-1.90;99.90;;;;;;5013779;28;20587;-48
2021/12/21 04:09:04;;;;;;;19.83;10.52;;;-1.90;99.90;;;;;;5034422;28;20045;-51
2021/12/21 04:11:30;;;;;;;18.27;9.68;;;-1.90;99.90;;;;;;5016739;28;20038;-51
2021/12/21 04:13:56;;;;;;;19.83;10.13;;;-1.90;99.90;;;;;;5015990;28;20038;-51
2021/12/21 04:16:22;;;;;;;21.55;10.23;;;-1.90;99.90;;;;;;4999809;28;20033;-47
2021/12/21 04:18:48;;;;;;;17.23;9.68;;;-1.90;99.90;;;;;;4999917;28;20138;-49
2021/12/21 04:25:06;;;;;;;21.20;11.05;;;-1.70;99.90;;;;;;4632530;22;20161;-48
2021/12/21 04:27:32;;;;;;;18.27;10.75;;;-1.70;99.90;;;;;;4994689;28;20050;-48
2021/12/21 04:29:58;;;;;;;20.40;10.75;;;-1.80;99.90;;;;;;4997064;28;20123;-50
2021/12/21 04:32:23;;;;;;;20.77;10.90;;;-1.80;99.90;;;;;;5000965;28;20493;-49
2021/12/21 04:34:50;;;;;;;19.38;10.40;;;-1.80;99.90;;;;;;4990627;28;20050;-51
2021/12/21 04:37:16;;;;;;;20.45;9.65;;;-1.80;99.90;;;;;;4974959;28;20414;-50
2021/12/21 04:39:53;;;;;;;19.38;10.27;;;-1.80;99.90;;;;;;4976196;28;20066;-51
2021/12/21 04:42:19;;;;;;;20.70;10.60;;;-1.80;99.90;;;;;;4958786;28;20085;-48
2021/12/21 04:44:45;;;;;;;21.35;10.10;;;-1.90;99.90;;;;;;4985925;28;20046;-51
2021/12/21 04:47:10;;;;;;;18.60;9.77;;;-1.90;99.90;;;;;;4975093;28;20466;-48
2021/12/21 04:49:36;;;;;;;20.17;10.27;;;-2.00;99.90;;;;;;4975189;28;20517;-48
2021/12/21 04:52:01;;;;;;;18.95;10.30;;;-2.00;99.90;;;;;;4974715;28;20047;-51
2021/12/21 04:54:27;;;;;;;19.50;10.55;;;-2.00;99.90;;;;;;4974643;28;20043;-51
2021/12/21 04:56:52;;;;;;;19.92;10.55;;;-2.00;99.90;;;;;;4958225;28;20047;-48
2021/12/21 04:59:18;;;;;;;21.48;11.25;;;-1.90;99.90;;;;;;4964993;28;20043;-50
2021/12/21 05:01:44;;;;;;;20.23;10.85;;;-1.90;99.90;;;;;;4974787;28;20050;-48
2021/12/21 05:04:09;;;;;;;20.08;10.50;;;-1.90;99.90;;;;;;4990399;28;20038;-51
2021/12/21 05:06:35;;;;;;;18.95;10.43;;;-1.90;99.90;;;;;;4993260;28;20085;-49
2021/12/21 05:09:45;;;;;;;20.98;10.77;;;-1.90;99.90;;;;;;4991313;28;20061;-50
2021/12/21 05:11:50;;;;;;;19.25;10.10;;;-1.90;99.90;;;;;;4985135;28;20073;-47
2021/12/21 05:14:17;;;;;;;17.60;9.52;;;-1.90;99.90;;;;;;4993247;28;20406;-49
2021/12/21 05:16:42;;;;;;;17.70;10.05;;;-1.90;99.90;;;;;;4959521;28;20082;-47
2021/12/21 05:19:08;;;;;;;17.63;9.88;;;-1.80;99.90;;;;;;4973552;28;20117;-50
2021/12/21 05:21:33;;;;;;;18.02;9.57;;;-1.80;99.90;;;;;;4989607;28;20114;-51
2021/12/21 05:23:59;;;;;;;18.90;9.80;;;-1.80;99.90;;;;;;4973607;28;20031;-49
2021/12/21 05:26:25;;;;;;;16.35;9.05;;;-1.90;99.90;;;;;;4974272;28;20051;-47
2021/12/21 05:28:51;;;;;;;16.60;9.45;;;-1.90;99.90;;;;;;4986158;28;20042;-48
2021/12/21 05:31:18;;;;;;;19.00;9.50;;;-1.90;99.90;;;;;;4992919;28;20104;-48
2021/12/21 05:33:45;;;;;;;21.30;10.07;;;-1.90;99.90;;;;;;4945103;28;20050;-50
2021/12/21 05:36:11;;;;;;;16.50;10.25;;;-1.90;99.90;;;;;;4941568;28;20050;-48
2021/12/21 05:38:37;;;;;;;22.13;9.77;;;-1.90;99.90;;;;;;4959907;28;20034;-51
2021/12/21 05:41:06;;;;;;;20.05;9.98;;;-1.90;99.90;;;;;;4993482;28;20483;-50
2021/12/21 05:43:32;;;;;;;20.10;10.85;;;-1.90;99.90;;;;;;4966933;28;20074;-47
2021/12/21 05:45:58;;;;;;;18.65;9.50;;;-1.90;99.90;;;;;;4994739;28;20065;-51
2021/12/21 05:48:24;;;;;;;19.27;10.85;;;-2.00;99.90;;;;;;4994212;28;20056;-51
2021/12/21 05:50:50;;;;;;;21.42;10.15;;;-2.00;99.90;;;;;;4993336;28;20038;-49
2021/12/21 05:53:16;;;;;;;15.95;9.63;;;-2.10;99.90;;;;;;4989632;28;20073;-47
2021/12/21 05:55:42;;;;;;;15.35;9.60;;;-2.20;99.90;;;;;;4960129;28;20113;-48
2021/12/21 05:58:08;;;;;;;14.32;8.95;;;-2.20;99.90;;;;;;4954712;28;20039;-51
2021/12/21 06:00:35;;;;;;;17.92;9.90;;;-2.30;99.90;;;;;;4942667;28;20040;-49
2021/12/21 06:03:57;;;;;;;22.65;11.10;;;-2.20;99.90;;;;;;4971996;28;20066;-50
2021/12/21 06:07:02;;;;;;;19.35;9.63;;;-2.20;99.90;;;;;;4947045;22;20064;-48
2021/12/21 06:09:29;;;;;;;19.83;10.25;;;-2.30;99.90;;;;;;5010585;28;20077;-47
2021/12/21 06:12:07;;;;;;;15.35;9.32;;;-2.30;99.90;;;;;;5012090;28;20531;-51
2021/12/21 06:14:55;;;;;;;17.50;10.55;;;-2.30;99.90;;;;;;5011642;28;20037;-50
2021/12/21 06:23:16;;;;;;;19.08;10.70;;;-2.10;99.90;;;;;;4996964;28;20474;-47
2021/12/21 06:25:54;;;;;;;18.30;10.32;;;-2.10;99.90;;;;;;4989889;28;20038;-50
2021/12/21 06:28:20;;;;;;;20.23;9.98;;;-2.10;99.90;;;;;;4989658;28;20045;-49
2021/12/21 06:30:46;;;;;;;17.55;9.25;;;-2.10;99.90;;;;;;4988150;28;20591;-53
2021/12/21 06:33:11;;;;;;;17.73;9.30;;;-2.10;99.90;;;;;;4986897;28;20545;-51
2021/12/21 06:35:38;;;;;;;20.60;9.77;;;-2.10;99.90;;;;;;4989534;28;20078;-48
2021/12/21 06:38:04;;;;;;;18.60;9.88;;;-2.10;99.90;;;;;;4990446;28;20064;-47
2021/12/21 06:40:31;;;;;;;16.63;10.10;;;-2.10;99.90;;;;;;4990239;28;20049;-50
2021/12/21 06:43:00;;;;;;;17.95;9.50;;;-2.10;99.90;;;;;;4971877;28;20034;-47
2021/12/21 06:45:31;;;;;;;21.55;9.82;;;-2.10;99.90;;;;;;4988948;28;20045;-47
2021/12/21 06:53:26;;;;;;;16.73;10.18;;;-2.00;99.90;;;;;;4989089;28;20085;-49
2021/12/21 06:55:52;;;;;;;21.48;10.10;;;-2.00;99.90;;;;;;4991656;28;20045;-50
2021/12/21 06:58:18;;;;;;;18.30;9.77;;;-2.00;99.90;;;;;;4982762;28;20042;-48
2021/12/21 07:00:44;;;;;;;16.27;9.82;;;-2.00;99.90;;;;;;4988492;28;20034;-47
2021/12/21 07:03:12;;;;;;;17.33;9.02;;;-1.90;99.90;;;;;;4991007;28;20101;-47
2021/12/21 07:05:40;;;;;;;16.67;9.55;;;-2.00;99.90;;;;;;4991000;28;20494;-47
2021/12/21 07:08:08;;;;;;;18.65;9.90;;;-1.90;99.90;;;;;;4991175;28;20038;-47
2021/12/21 07:10:34;;;;;;;16.45;9.90;;;-2.00;99.90;;;;;;4991415;28;20524;-47
2021/12/21 07:18:31;;;;;;;16.80;8.70;;;-1.90;99.90;;;;;;4988836;28;20093;-51
2021/12/21 07:20:59;;;;;;;15.90;9.00;;;-2.00;99.90;;;;;;4991463;28;20042;-50
2021/12/21 07:23:25;;;;;;;20.67;9.73;;;-2.00;99.90;;;;;;4990795;28;20038;-50
2021/12/21 07:25:51;;;;;;;17.60;9.05;;;-2.10;99.90;;;;;;4990234;28;20078;-47
2021/12/21 07:28:16;;;;;;;16.65;9.60;;;-2.10;99.90;;;;;;4989807;28;20636;-47
2021/12/21 07:30:42;;;;;;;16.70;9.98;;;-2.10;99.90;;;;;;4990646;28;20052;-47
2021/12/21 07:33:08;;;;;;;21.80;10.15;;;-2.10;99.90;;;;;;4990529;28;20053;-47
2021/12/21 07:35:34;;;;;;;19.17;10.88;;;-2.00;99.90;;;;;;4990200;28;20509;-47
2021/12/21 07:38:00;;;;;;;21.73;10.32;;;-2.10;99.90;;;;;;4990574;28;20035;-47
2021/12/21 07:40:26;;;;;;;22.08;10.13;;;-2.10;99.90;;;;;;4990607;28;20525;-49
2021/12/21 07:42:51;;;;;;;24.63;11.43;;;-2.10;99.90;;;;;;4994121;28;20045;-51
2021/12/21 07:45:17;;;;;;;21.65;12.15;;;-2.20;99.90;;;;;;4995506;28;20049;-47
2021/12/21 07:47:43;;;;;;;20.20;12.10;;;-2.20;99.90;;;;;;4995348;28;20043;-47
2021/12/21 07:50:10;;;;;;;19.85;11.77;;;-2.10;99.90;;;;;;4995094;28;20050;-47
2021/12/21 07:52:35;;;;;;;20.90;11.48;;;-2.10;99.90;;;;;;4981952;28;20093;-47
2021/12/21 07:55:01;;;;;;;17.60;11.30;;;-1.90;99.90;;;;;;4975791;28;20034;-47
2021/12/21 07:57:26;;;;;;;21.38;11.82;;;-2.20;99.90;;;;;;4958406;28;20066;-47
2021/12/21 07:59:52;;;;;;;22.23;11.43;;;-2.20;99.90;;;;;;4975896;28;20498;-48
2021/12/21 08:02:18;;;;;;;19.83;11.02;;;-2.20;99.90;;;;;;4975755;28;20415;-50
2021/12/21 08:04:44;;;;;;;18.05;10.00;;;-2.20;99.90;;;;;;4976122;28;20482;-47
2021/12/21 08:07:18;;;;;;;20.58;10.68;;;-2.20;99.90;;;;;;4992943;28;20549;-47
2021/12/21 08:09:47;;;;;;;19.38;10.48;;;-2.20;99.90;;;;;;4993504;28;20418;-47
2021/12/21 08:12:15;;;;;;;22.10;11.13;;;-2.20;99.90;;;;;;4994701;28;20038;-47
2021/12/21 08:14:46;;;;;;;19.48;10.55;;;-2.30;99.90;;;;;;4994820;28;20047;-47
2021/12/21 08:17:12;;;;;;;20.13;10.38;;;-2.30;99.90;;;;;;4995073;28;20045;-47
2021/12/21 08:19:38;;;;;;;20.25;10.68;;;-2.30;99.90;;;;;;4995183;28;20070;-47
2021/12/21 08:22:04;;;;;;;18.17;10.13;;;-2.30;99.90;;;;;;4977112;28;20069;-47
2021/12/21 08:24:30;;;;;;;23.73;11.13;;;-2.00;99.90;;;;;;4994058;28;20410;-47
2021/12/21 08:26:58;;;;;;;20.20;11.20;;;-2.30;99.90;;;;;;4992149;28;20038;-47
2021/12/21 08:29:25;;;;;;;18.83;10.73;;;-2.30;99.90;;;;;;4994369;28;20088;-47
2021/12/21 08:31:50;;;;;;;19.17;10.60;;;-2.30;99.90;;;;;;4994138;28;20037;-47
2021/12/21 08:34:16;;;;;;;22.10;11.50;;;-2.30;99.90;;;;;;4994653;28;20402;-47
2021/12/21 08:36:41;;;;;;;21.45;11.40;;;-2.20;99.90;;;;;;4993296;28;20410;-50
2021/12/21 08:39:07;;;;;;;19.20;11.07;;;-2.20;99.90;;;;;;4995106;28;20113;-49
2021/12/21 08:41:39;;;;;;;20.65;10.93;;;-2.20;99.90;;;;;;4993770;28;20038;-49
2021/12/21 08:44:04;;;;;;;19.27;10.48;;;-2.10;99.90;;;;;;4991968;28;20044;-47
2021/12/21 08:46:30;;;;;;;22.75;11.43;;;-2.00;99.90;;;;;;4976922;28;20122;-47
2021/12/21 08:48:56;;;;;;;17.27;10.85;;;-2.00;99.90;;;;;;4984816;28;20042;-51
2021/12/21 08:51:21;;;;;;;22.38;11.30;;;-2.00;99.90;;;;;;4991683;28;20042;-52
2021/12/21 08:53:47;;;;;;;36.53;24.40;;;-1.90;99.90;;;;;;4987140;28;20118;-51
2021/12/21 08:56:12;;;;;;;34.72;22.23;;;-1.80;99.90;;;;;;4987820;28;20517;-47
2021/12/21 08:58:38;;;;;;;30.88;19.40;;;-1.80;99.90;;;;;;4987983;28;20394;-51
2021/12/21 09:01:04;;;;;;;31.23;19.30;;;-1.80;99.90;;;;;;4988900;28;20045;-53
2021/12/21 09:03:30;;;;;;;25.90;17.38;;;-1.80;99.90;;;;;;4987138;28;20695;-50
2021/12/21 09:05:57;;;;;;;22.92;15.15;;;-1.70;99.90;;;;;;4987882;28;20035;-49
2021/12/21 09:08:23;;;;;;;26.83;13.27;;;-1.70;99.90;;;;;;4985586;28;20047;-47
2021/12/21 09:10:49;;;;;;;21.98;12.82;;;-1.70;99.90;;;;;;4984188;28;20102;-50
2021/12/21 09:13:15;;;;;;;26.13;13.48;;;-1.70;99.90;;;;;;4988768;28;20041;-47
2021/12/21 09:15:41;;;;;;;26.17;13.77;;;-1.70;99.90;;;;;;4984394;28;20399;-48
2021/12/21 09:18:06;;;;;;;23.55;14.43;;;-1.70;99.90;;;;;;4989856;28;20034;-48
2021/12/21 09:20:33;;;;;;;27.80;15.32;;;-1.70;99.90;;;;;;4993671;28;20038;-50
2021/12/21 09:22:59;;;;;;;31.65;17.75;;;-1.60;99.90;;;;;;4991329;28;20445;-48
2021/12/21 09:25:25;;;;;;;31.50;19.88;;;-1.60;99.90;;;;;;4991112;28;20034;-47
2021/12/21 09:27:52;;;;;;;43.10;21.50;;;-1.60;99.90;;;;;;4991010;28;20096;-47
2021/12/21 09:30:20;;;;;;;38.13;21.35;;;-1.50;99.90;;;;;;4990788;28;20455;-48
2021/12/21 09:32:46;;;;;;;40.85;23.58;;;-1.40;99.90;;;;;;4990543;28;20078;-47
2021/12/21 09:35:12;;;;;;;49.53;23.05;;;-1.40;99.90;;;;;;4990833;28;20041;-47
2021/12/21 09:37:38;;;;;;;37.17;21.40;;;-1.30;99.90;;;;;;4994778;28;20042;-47
2021/12/21 09:40:08;;;;;;;41.40;23.55;;;-1.30;99.90;;;;;;4992246;28;20129;-48
2021/12/21 09:42:33;;;;;;;57.78;36.60;;;-1.20;99.90;;;;;;4991219;28;20109;-47
2021/12/21 09:44:59;;;;;;;48.97;31.30;;;-1.10;99.90;;;;;;4992578;28;20121;-47
2021/12/21 09:47:26;;;;;;;45.30;25.98;;;-1.00;99.90;;;;;;4989587;28;20149;-48
2021/12/21 09:49:53;;;;;;;38.38;23.45;;;-1.00;99.90;;;;;;4991340;28;20586;-47
2021/12/21 09:52:21;;;;;;;39.92;24.42;;;-0.90;99.90;;;;;;4989735;28;20557;-51
2021/12/21 09:54:47;;;;;;;43.35;27.63;;;-0.80;99.90;;;;;;4971110;28;20045;-47
2021/12/21 09:57:17;;;;;;;42.40;24.75;;;-0.80;99.90;;;;;;4992990;28;20453;-47
2021/12/21 09:59:44;;;;;;;42.85;25.67;;;-0.70;99.90;;;;;;4987184;28;20038;-47
2021/12/21 10:02:09;;;;;;;47.20;28.10;;;-0.70;99.90;;;;;;4992124;28;20532;-50
2021/12/21 10:05:06;;;;;;;45.80;27.38;;;-0.60;99.90;;;;;;4990045;28;20034;-47
2021/12/21 10:07:33;;;;;;;43.97;26.08;;;-0.50;99.90;;;;;;4990385;28;20463;-48
2021/12/21 10:10:07;;;;;;;41.38;24.85;;;-0.40;99.90;;;;;;4973447;28;20129;-47
2021/12/21 10:12:41;;;;;;;41.08;23.88;;;-0.30;99.90;;;;;;4991222;28;20042;-51
2021/12/21 10:15:15;;;;;;;38.90;23.55;;;-0.20;99.90;;;;;;4970802;28;20049;-47
2021/12/21 10:17:58;;;;;;;39.13;23.15;;;-0.20;99.90;;;;;;4970872;28;20045;-47
2021/12/21 10:20:46;;;;;;;42.28;24.65;;;-0.10;99.90;;;;;;4990209;28;20038;-50
2021/12/21 10:23:21;;;;;;;40.17;23.95;;;0.00;99.90;;;;;;4982831;28;20050;-51
2021/12/21 10:26:07;;;;;;;39.40;25.33;;;0.00;99.90;;;;;;4987873;28;20049;-47
2021/12/21 10:28:50;;;;;;;42.15;25.95;;;0.10;99.90;;;;;;4987008;28;20038;-48
2021/12/21 10:31:25;;;;;;;41.95;25.10;;;0.20;99.90;;;;;;4989192;28;20038;-52
2021/12/21 10:33:51;;;;;;;36.08;23.60;;;0.20;99.90;;;;;;4989583;28;20038;-48
2021/12/21 10:36:17;;;;;;;33.25;21.48;;;0.30;99.90;;;;;;4989065;28;20442;-48
2021/12/21 10:38:51;;;;;;;49.95;27.85;;;0.50;99.90;;;;;;4988689;28;20138;-47
2021/12/21 10:41:33;;;;;;;35.45;22.98;;;1.10;99.90;;;;;;4990219;28;20034;-48
2021/12/21 10:44:03;;;;;;;43.25;23.23;;;1.40;99.90;;;;;;4990871;28;20030;-48
2021/12/21 10:46:32;;;;;;;34.95;21.33;;;1.40;99.90;;;;;;4990405;28;20117;-51
2021/12/21 10:49:25;;;;;;;34.88;22.38;;;1.30;99.90;;;;;;4990114;28;20038;-47
2021/12/21 10:52:04;;;;;;;;;;;1.30;99.90;;;;;;4978375;28;20050;-51
2021/12/21 10:54:39;;;;;;;37.38;22.90;;;1.20;99.90;;;;;;4992146;28;20004;-47
2021/12/21 10:57:31;;;;;;;34.35;21.23;;;1.20;99.90;;;;;;4990413;28;20038;-50
2021/12/21 11:00:01;;;;;;;37.60;23.35;;;1.20;99.90;;;;;;4984651;28;20117;-48
2021/12/21 11:02:31;;;;;;;39.50;22.17;;;1.20;99.90;;;;;;4987703;28;20036;-48
2021/12/21 11:05:15;;;;;;;35.47;21.30;;;1.20;99.90;;;;;;4991376;28;20034;-48
2021/12/21 11:07:47;;;;;;;35.08;21.27;;;1.20;99.90;;;;;;4988332;28;20114;-51
2021/12/21 11:10:26;;;;;;;41.55;22.98;;;1.20;99.90;;;;;;4963754;28;20046;-48
2021/12/21 11:12:54;;;;;;;38.33;22.38;;;1.30;99.90;;;;;;4983251;28;20046;-48
2021/12/21 11:15:28;;;;;;;35.78;23.10;;;1.30;99.90;;;;;;4988511;28;20549;-48
2021/12/21 11:17:54;;;;;;;34.90;22.50;;;1.30;99.90;;;;;;4994951;28;20398;-50
2021/12/21 11:20:20;;;;;;;39.40;21.02;;;1.40;99.90;;;;;;4994093;28;20045;-48
2021/12/21 11:22:45;;;;;;;33.50;20.52;;;1.40;99.90;;;;;;4986970;28;20034;-51
2021/12/21 11:25:13;;;;;;;34.13;19.95;;;1.50;99.90;;;;;;4994217;28;20368;-48
2021/12/21 11:27:41;;;;;;;35.80;19.90;;;1.50;99.90;;;;;;4991807;28;20050;-53
2021/12/21 11:30:20;;;;;;;35.05;20.02;;;1.60;99.90;;;;;;4995531;28;20090;-48
2021/12/21 11:32:49;;;;;;;29.05;18.88;;;1.60;99.90;;;;;;4991552;28;20040;-50
2021/12/21 11:37:54;;;;;;;37.10;19.45;;;1.70;99.90;;;;;;4995685;28;20097;-48
2021/12/21 11:40:29;;;;;;;28.80;17.60;;;1.70;99.90;;;;;;4995584;28;20048;-48
2021/12/21 11:43:21;;;;;;;33.60;19.98;;;1.80;99.90;;;;;;4995371;28;20126;-49
2021/12/21 11:45:56;;;;;;;34.80;19.25;;;1.90;99.90;;;;;;4966258;28;20050;-48
2021/12/21 11:48:35;;;;;;;29.23;18.15;;;1.90;99.90;;;;;;4994558;28;20104;-48
2021/12/21 11:51:09;;;;;;;39.00;19.33;;;1.90;99.90;;;;;;4995024;28;20049;-50
2021/12/21 11:53:36;;;;;;;46.65;29.67;;;2.00;99.90;;;;;;4993921;28;20101;-48
2021/12/21 11:56:04;;;;;;;43.50;22.42;;;2.00;99.90;;;;;;4989441;28;20081;-48
2021/12/21 11:58:41;;;;;;;32.08;18.13;;;2.10;99.90;;;;;;4994568;28;20046;-48
2021/12/21 12:01:23;;;;;;;32.33;18.67;;;2.10;99.90;;;;;;4988325;28;20042;-51
2021/12/21 12:04:01;;;;;;;25.88;17.65;;;2.20;99.90;;;;;;4994631;28;20061;-54
2021/12/21 12:06:41;;;;;;;28.92;16.70;;;2.20;99.90;;;;;;4995242;28;20513;-52
2021/12/21 12:09:07;;;;;;;28.35;17.25;;;2.30;99.90;;;;;;5055046;22;20038;-48
2021/12/21 12:11:44;;;;;;;28.52;15.25;;;2.30;99.90;;;;;;5012205;28;20054;-49
2021/12/21 12:14:14;;;;;;;26.05;13.93;;;2.30;99.90;;;;;;4991852;28;20085;-47
2021/12/21 12:17:02;;;;;;;28.13;13.63;;;2.40;99.90;;;;;;4994997;28;20383;-47
2021/12/21 12:19:34;;;;;;;22.65;13.63;;;2.40;99.90;;;;;;4991927;28;20560;-49
2021/12/21 12:22:01;;;;;;;30.23;14.82;;;2.40;99.90;;;;;;5011477;28;20042;-51
2021/12/21 12:24:44;;;;;;;28.40;14.50;;;2.50;99.90;;;;;;4976543;28;20453;-50
2021/12/21 12:27:17;;;;;;;31.65;15.90;;;2.50;99.90;;;;;;5013083;28;20041;-48
2021/12/21 12:29:58;;;;;;;28.27;18.13;;;2.50;99.90;;;;;;5008651;28;20441;-49
2021/12/21 12:32:47;;;;;;;29.30;17.33;;;2.60;99.90;;;;;;5013063;28;20049;-48
2021/12/21 12:35:16;;;;;;;28.67;17.10;;;2.50;99.90;;;;;;5014033;28;20042;-49
2021/12/21 12:38:18;;;;;;;31.40;17.27;;;2.50;99.90;;;;;;5014384;28;20095;-48
2021/12/21 12:40:49;;;;;;;31.13;17.00;;;2.60;99.90;;;;;;5010572;28;20029;-52
2021/12/21 12:43:17;;;;;;;37.28;18.83;;;2.60;99.90;;;;;;5005978;28;20142;-51
2021/12/21 12:45:51;;;;;;;29.48;17.30;;;2.60;99.90;;;;;;5006379;28;20041;-49
2021/12/21 12:48:24;;;;;;;30.55;16.98;;;2.60;99.90;;;;;;5007047;28;20084;-53
2021/12/21 12:50:51;;;;;;;;;;;2.60;99.90;;;;;;5006293;28;20470;-49
2021/12/21 12:53:16;;;;;;;27.48;16.15;;;2.70;99.90;;;;;;5005379;28;19917;-50
2021/12/21 12:55:55;;;;;;;24.45;15.35;;;2.70;99.90;;;;;;5008336;28;20041;-49
2021/12/21 12:58:23;;;;;;;26.30;15.77;;;2.70;99.90;;;;;;5002907;28;20051;-50
2021/12/21 13:01:02;;;;;;;28.10;14.82;;;2.80;99.90;;;;;;5004892;28;20096;-48
2021/12/21 13:03:43;;;;;;;29.42;19.42;;;2.90;99.90;;;;;;5002212;28;20041;-49
2021/12/21 13:06:11;;;;;;;37.63;20.52;;;2.90;99.90;;;;;;5004447;28;20089;-49
2021/12/21 13:08:38;;;;;;;29.05;17.80;;;3.00;99.90;;;;;;4999554;28;21373;-49
2021/12/21 13:11:04;;;;;;;27.15;14.43;;;3.00;99.90;;;;;;5009381;28;20038;-49
2021/12/21 13:13:40;;;;;;;20.95;12.93;;;3.00;99.90;;;;;;4995743;28;20076;-49
2021/12/21 13:16:15;;;;;;;24.13;14.20;;;3.10;99.90;;;;;;4998265;28;20058;-49
2021/12/21 13:18:52;;;;;;;27.70;13.23;;;3.10;99.90;;;;;;5000362;28;20041;-50
2021/12/21 13:21:32;;;;;;;20.30;12.65;;;3.10;99.90;;;;;;4997771;28;20040;-49
2021/12/21 13:24:04;;;;;;;30.60;15.73;;;3.20;99.90;;;;;;4995050;28;20026;-49
2021/12/21 13:26:36;;;;;;;25.58;14.18;;;3.20;99.90;;;;;;5012451;28;20413;-50
2021/12/21 13:29:03;;;;;;;25.85;12.65;;;3.20;99.90;;;;;;4994978;28;20053;-49
2021/12/21 13:31:29;;;;;;;22.90;11.73;;;3.20;99.90;;;;;;4979289;28;20394;-50
2021/12/21 13:33:59;;;;;;;22.63;11.15;;;3.20;99.90;;;;;;4995381;28;20133;-50
2021/12/21 13:36:38;;;;;;;21.65;11.32;;;3.30;99.90;;;;;;5012764;28;20453;-48
2021/12/21 13:39:23;;;;;;;24.88;11.93;;;3.30;99.90;;;;;;5010706;28;20065;-49
2021/12/21 13:41:55;;;;;;;20.00;12.45;;;3.30;99.90;;;;;;4986154;28;20046;-48
2021/12/21 13:44:34;;;;;;;19.30;11.05;;;3.30;99.90;;;;;;4954356;28;20124;-48